Time;durP1;ratioP1;P1;durP2;ratioP2;P2;SDS_P1;SDS_P2;PMS_P1;PMS_P2;Temp;Humidity;BMP_temperature;BMP_pressure;BME280_temperature;BME280_humidity;BME280_pressure;Samples;Min_cycle;Max_cycle;Signal;HPM_P1;HPM_P2
2021/10/21 00:00:56;;;;;;;8.73;5.22;;;;;;;-139.48;100.00;61774.03;4997234;28;20044;-65
2021/10/21 00:03:40;;;;;;;11.98;5.30;;;;;;;-139.48;100.00;61774.03;4996793;28;20069;-65
2021/10/21 00:06:24;;;;;;;8.88;5.28;;;;;;;-139.48;100.00;61774.03;4982514;28;20084;-65
2021/10/21 00:09:08;;;;;;;8.85;5.32;;;;;;;-139.48;100.00;61774.03;4997054;28;20084;-65
2021/10/21 00:11:52;;;;;;;6.88;5.70;;;;;;;-139.48;100.00;61774.03;4995902;28;20056;-66
2021/10/21 00:14:36;;;;;;;7.88;5.20;;;;;;;-139.48;100.00;61774.03;4995927;28;20057;-65
2021/10/21 00:17:19;;;;;;;8.70;6.30;;;;;;;-139.48;100.00;61774.03;4995946;28;20125;-66
2021/10/21 00:20:06;;;;;;;10.55;6.18;;;;;;;-139.48;100.00;61774.03;4995893;28;20543;-66
2021/10/21 00:22:50;;;;;;;8.27;6.28;;;;;;;-139.48;100.00;61774.03;4995791;28;20510;-65
2021/10/21 00:25:34;;;;;;;7.57;6.32;;;;;;;-139.48;100.00;61774.03;4995808;28;20099;-65
2021/10/21 00:28:18;;;;;;;8.55;6.32;;;;;;;-139.48;100.00;61774.03;4996718;28;20044;-66
2021/10/21 00:31:03;;;;;;;10.52;6.57;;;;;;;-139.48;100.00;61774.03;4996406;28;20069;-64
2021/10/21 00:33:47;;;;;;;9.40;7.05;;;;;;;-139.48;100.00;61774.03;4995371;28;20148;-64
2021/10/21 00:36:31;;;;;;;9.35;7.25;;;;;;;-139.48;100.00;61774.03;4981882;28;20108;-65
2021/10/21 00:39:15;;;;;;;12.55;7.43;;;;;;;-139.48;100.00;61774.03;4996764;28;20133;-65
2021/10/21 00:41:59;;;;;;;12.55;7.55;;;;;;;-139.48;100.00;61774.03;4995356;28;20041;-65
2021/10/21 00:44:44;;;;;;;11.38;6.95;;;;;;;-139.48;100.00;61774.03;4996137;28;20454;-65
2021/10/21 00:47:28;;;;;;;10.07;7.47;;;;;;;-139.48;100.00;61774.03;4996062;28;20052;-65
2021/10/21 00:50:12;;;;;;;8.35;5.97;;;;;;;-139.48;100.00;61774.03;4996406;28;20529;-64
2021/10/21 00:52:56;;;;;;;9.90;6.95;;;;;;;-139.48;100.00;61774.03;4996192;28;20052;-63
2021/10/21 00:55:40;;;;;;;7.57;5.63;;;;;;;-139.48;100.00;61774.03;4995241;28;20084;-64
2021/10/21 00:58:24;;;;;;;9.23;6.63;;;;;;;-139.48;100.00;61774.03;4995996;28;20427;-64
2021/10/21 01:01:08;;;;;;;9.88;7.03;;;;;;;-139.48;100.00;61774.03;4994692;28;20121;-64
2021/10/21 01:03:51;;;;;;;10.00;7.07;;;;;;;-139.48;100.00;61774.03;4994775;28;20057;-64
2021/10/21 01:06:35;;;;;;;10.48;7.15;;;;;;;-139.48;100.00;61774.03;4994756;28;20126;-64
2021/10/21 01:09:19;;;;;;;13.13;7.60;;;;;;;-139.48;100.00;61774.03;4994988;28;20049;-64
2021/10/21 01:12:04;;;;;;;10.63;8.18;;;;;;;-139.48;100.00;61774.03;4994508;28;20054;-64
2021/10/21 01:14:48;;;;;;;11.80;7.63;;;;;;;-139.48;100.00;61774.03;4994842;28;20050;-64
2021/10/21 01:17:32;;;;;;;10.85;7.80;;;;;;;-139.48;100.00;61774.03;4995522;28;20097;-64
2021/10/21 01:20:17;;;;;;;11.60;8.00;;;;;;;-139.48;100.00;61774.03;4995473;28;20093;-65
2021/10/21 01:23:01;;;;;;;11.63;8.02;;;;;;;-139.48;100.00;61774.03;4995701;28;20593;-64
2021/10/21 01:25:45;;;;;;;11.75;8.23;;;;;;;-139.48;100.00;61774.03;4994404;28;20107;-65
2021/10/21 01:28:28;;;;;;;13.50;9.02;;;;;;;-139.48;100.00;61774.03;4994613;28;20519;-65
2021/10/21 01:31:12;;;;;;;11.45;8.35;;;;;;;-139.48;100.00;61774.03;4995202;28;20108;-64
2021/10/21 01:33:56;;;;;;;12.77;8.63;;;;;;;-139.48;100.00;61774.03;4994398;28;20045;-64
2021/10/21 01:36:42;;;;;;;11.95;8.77;;;;;;;-139.48;100.00;61774.03;4994476;28;20554;-66
2021/10/21 01:39:26;;;;;;;10.20;7.43;;;;;;;-139.48;100.00;61774.03;4994117;28;20049;-66
2021/10/21 01:42:11;;;;;;;12.25;7.15;;;;;;;-139.48;100.00;61774.03;4994261;28;20093;-65
2021/10/21 01:44:55;;;;;;;11.18;7.85;;;;;;;-139.48;100.00;61774.03;4994982;28;20108;-65
2021/10/21 01:47:39;;;;;;;12.45;7.15;;;;;;;-139.48;100.00;61774.03;4994496;28;20065;-65
2021/10/21 01:50:23;;;;;;;11.23;7.40;;;;;;;-139.48;100.00;61774.03;4995089;28;20474;-65
2021/10/21 01:53:07;;;;;;;8.43;5.13;;;;;;;-139.48;100.00;61774.03;4994875;28;20049;-65
2021/10/21 01:55:51;;;;;;;8.77;6.25;;;;;;;-139.48;100.00;61774.03;4995039;28;20054;-65
2021/10/21 01:58:35;;;;;;;10.02;6.85;;;;;;;-139.48;100.00;61774.03;4994054;28;20045;-66
2021/10/21 02:01:19;;;;;;;8.68;6.18;;;;;;;-139.48;100.00;61774.03;4994828;28;20049;-66
2021/10/21 02:04:03;;;;;;;9.23;5.85;;;;;;;-139.48;100.00;61774.03;4994564;28;20068;-65
2021/10/21 02:06:47;;;;;;;8.63;6.40;;;;;;;-139.48;100.00;61774.03;4994838;28;20049;-65
2021/10/21 02:09:31;;;;;;;6.82;5.68;;;;;;;-139.48;100.00;61774.03;4993721;28;20522;-65
2021/10/21 02:12:15;;;;;;;6.25;5.40;;;;;;;-139.48;100.00;61774.03;4992922;28;20404;-65
2021/10/21 02:14:59;;;;;;;7.03;5.13;;;;;;;-139.48;100.00;61774.03;4994774;28;20092;-66
2021/10/21 02:17:43;;;;;;;;;;;;;;;-139.48;100.00;61774.03;4994326;28;20564;-65
2021/10/21 02:20:27;;;;;;;6.68;4.72;;;;;;;-139.48;100.00;61774.03;4993755;28;20302;-65
2021/10/21 02:23:11;;;;;;;5.47;4.18;;;;;;;-139.48;100.00;61774.03;4994553;28;20403;-65
2021/10/21 02:25:55;;;;;;;10.40;5.10;;;;;;;-139.48;100.00;61774.03;4993428;28;20116;-64
2021/10/21 02:28:39;;;;;;;7.70;5.40;;;;;;;-139.48;100.00;61774.03;4993810;28;20534;-63
2021/10/21 02:31:23;;;;;;;5.45;4.25;;;;;;;-139.48;100.00;61774.03;4994410;28;20057;-63
2021/10/21 02:34:07;;;;;;;;;;;;;;;-139.48;100.00;61774.03;4994581;28;20077;-63
2021/10/21 02:36:51;;;;;;;8.40;5.47;;;;;;;-139.48;100.00;61774.03;4994160;28;20377;-64
2021/10/21 02:39:35;;;;;;;6.28;5.28;;;;;;;-139.48;100.00;61774.03;4993104;28;20053;-65
2021/10/21 02:42:19;;;;;;;6.63;4.65;;;;;;;-139.48;100.00;61774.03;4993125;28;20151;-65
2021/10/21 02:45:05;;;;;;;4.85;4.20;;;;;;;-139.48;100.00;61774.03;4979736;28;20053;-65
2021/10/21 02:47:49;;;;;;;6.30;4.45;;;;;;;-139.48;100.00;61774.03;4993950;28;20129;-65
2021/10/21 02:50:33;;;;;;;6.00;4.47;;;;;;;-139.48;100.00;61774.03;4993354;28;20137;-65
2021/10/21 02:53:17;;;;;;;5.45;3.22;;;;;;;-139.48;100.00;61774.03;4992836;28;20101;-65
2021/10/21 02:56:01;;;;;;;5.80;3.97;;;;;;;-139.48;100.00;61774.03;4993887;28;20105;-65
2021/10/21 02:58:45;;;;;;;7.53;4.53;;;;;;;-139.48;100.00;61774.03;4994085;28;20165;-65
2021/10/21 03:01:29;;;;;;;5.47;3.67;;;;;;;-139.48;100.00;61774.03;4992864;28;20061;-66
2021/10/21 03:04:13;;;;;;;7.20;2.25;;;;;;;-139.48;100.00;61774.03;4979114;28;20057;-64
2021/10/21 03:06:57;;;;;;;3.42;2.45;;;;;;;-139.48;100.00;61774.03;4993102;28;20073;-64
2021/10/21 03:09:41;;;;;;;3.17;2.88;;;;;;;-139.48;100.00;61774.03;4994017;28;20104;-65
2021/10/21 03:12:25;;;;;;;3.78;2.47;;;;;;;-139.48;100.00;61774.03;4993576;28;20077;-66
2021/10/21 03:15:10;;;;;;;3.50;1.80;;;;;;;-139.48;100.00;61774.03;4992711;28;20044;-66
2021/10/21 03:17:55;;;;;;;2.22;1.55;;;;;;;-139.48;100.00;61774.03;4993649;28;20097;-66
2021/10/21 03:20:39;;;;;;;3.20;1.50;;;;;;;-139.48;100.00;61774.03;4992649;28;20040;-66
2021/10/21 03:23:25;;;;;;;2.10;1.38;;;;;;;-139.48;100.00;61774.03;4994665;28;20116;-66
2021/10/21 03:26:09;;;;;;;1.33;0.90;;;;;;;-139.48;100.00;61774.03;4996839;28;20053;-66
2021/10/21 03:28:53;;;;;;;4.28;0.98;;;;;;;-139.48;100.00;61774.03;4996580;28;20522;-66
2021/10/21 03:31:37;;;;;;;4.40;1.40;;;;;;;-139.48;100.00;61774.03;4996715;28;20558;-64
2021/10/21 03:34:21;;;;;;;2.92;1.08;;;;;;;-139.48;100.00;61774.03;4997689;28;20525;-65
2021/10/21 03:37:04;;;;;;;3.28;1.13;;;;;;;-139.48;100.00;61774.03;4997367;28;20057;-66
2021/10/21 03:39:51;;;;;;;2.63;1.50;;;;;;;-139.48;100.00;61774.03;4996678;28;20045;-65
2021/10/21 03:42:35;;;;;;;1.95;0.52;;;;;;;-139.48;100.00;61774.03;4996277;28;20105;-65
2021/10/21 03:45:20;;;;;;;2.78;0.82;;;;;;;-139.48;100.00;61774.03;4998121;28;20057;-65
2021/10/21 03:48:04;;;;;;;2.22;0.70;;;;;;;-139.48;100.00;61774.03;4996479;28;20049;-65
2021/10/21 03:50:48;;;;;;;5.38;0.80;;;;;;;-139.48;100.00;61774.03;4996082;28;20506;-66
2021/10/21 03:53:31;;;;;;;0.95;0.80;;;;;;;-139.48;100.00;61774.03;4996049;28;20058;-66
2021/10/21 03:56:15;;;;;;;8.55;1.17;;;;;;;-139.48;100.00;61774.03;4996335;28;20073;-65
2021/10/21 03:58:59;;;;;;;4.68;0.60;;;;;;;-139.48;100.00;61774.03;4997251;28;20057;-66
2021/10/21 04:01:43;;;;;;;2.85;0.82;;;;;;;-139.48;100.00;61774.03;4996882;28;20509;-63
2021/10/21 04:04:27;;;;;;;3.85;1.02;;;;;;;-139.48;100.00;61774.03;4997168;28;20058;-65
2021/10/21 04:07:11;;;;;;;;;;;;;;;-139.48;100.00;61774.03;4997549;28;20050;-65
2021/10/21 04:09:55;;;;;;;2.38;0.73;;;;;;;-139.48;100.00;61774.03;4996995;28;19921;-64
2021/10/21 04:12:39;;;;;;;2.60;0.93;;;;;;;-139.48;100.00;61774.03;4997134;28;20048;-65
2021/10/21 04:15:26;;;;;;;4.63;1.23;;;;;;;-139.48;100.00;61774.03;4995743;28;20107;-65
2021/10/21 04:18:10;;;;;;;3.33;1.02;;;;;;;-139.48;100.00;61774.03;4996884;28;20137;-67
2021/10/21 04:20:54;;;;;;;11.85;0.98;;;;;;;-139.48;100.00;61774.03;4995604;28;20126;-66
2021/10/21 04:23:38;;;;;;;13.40;1.95;;;;;;;-139.48;100.00;61774.03;4982017;28;20100;-67
2021/10/21 04:26:22;;;;;;;12.93;1.88;;;;;;;-139.48;100.00;61774.03;4981960;28;20129;-67
2021/10/21 04:29:07;;;;;;;6.43;1.27;;;;;;;-139.48;100.00;61774.03;4996131;28;20069;-67
2021/10/21 04:31:50;;;;;;;12.80;1.50;;;;;;;-139.48;100.00;61774.03;4995621;28;20046;-67
2021/10/21 04:34:34;;;;;;;6.72;1.02;;;;;;;-139.48;100.00;61774.03;4995776;28;20113;-67
2021/10/21 04:37:18;;;;;;;7.63;2.40;;;;;;;-139.48;100.00;61774.03;4995871;28;20085;-67
2021/10/21 04:40:04;;;;;;;4.40;1.10;;;;;;;-139.48;100.00;61774.03;4995552;28;20411;-67
2021/10/21 04:42:48;;;;;;;3.78;1.08;;;;;;;-139.48;100.00;61774.03;4995012;28;20454;-67
2021/10/21 04:45:32;;;;;;;9.95;1.80;;;;;;;-139.48;100.00;61774.03;4996303;28;20085;-67
2021/10/21 04:48:16;;;;;;;6.28;1.67;;;;;;;-139.48;100.00;61774.03;4995381;28;20134;-66
2021/10/21 04:51:00;;;;;;;4.00;1.33;;;;;;;-139.48;100.00;61774.03;4995537;28;20503;-66
2021/10/21 04:53:44;;;;;;;7.85;1.60;;;;;;;-139.48;100.00;61774.03;4995975;28;20104;-67
2021/10/21 04:56:27;;;;;;;16.75;1.80;;;;;;;-139.48;100.00;61774.03;4981496;28;20049;-66
2021/10/21 04:59:12;;;;;;;7.45;1.45;;;;;;;-139.48;100.00;61774.03;4995184;28;20529;-70
2021/10/21 05:01:55;;;;;;;8.40;1.20;;;;;;;-139.48;100.00;61774.03;4995813;28;20520;-70
2021/10/21 05:04:39;;;;;;;7.55;1.75;;;;;;;-139.48;100.00;61774.03;4994773;28;20109;-70
2021/10/21 05:07:23;;;;;;;6.45;1.10;;;;;;;-139.48;100.00;61774.03;4994759;28;20049;-67
2021/10/21 05:10:08;;;;;;;5.25;1.52;;;;;;;-139.48;100.00;61774.03;4980912;28;20056;-68
2021/10/21 05:12:51;;;;;;;4.80;1.08;;;;;;;-139.48;100.00;61774.03;4994826;28;20406;-65
2021/10/21 05:15:35;;;;;;;4.90;1.55;;;;;;;-139.48;100.00;61774.03;4995153;28;20045;-66
2021/10/21 05:18:19;;;;;;;3.33;1.10;;;;;;;-139.48;100.00;61774.03;4995803;28;20045;-66
2021/10/21 05:21:03;;;;;;;9.20;1.40;;;;;;;-139.48;100.00;61774.03;4980727;28;20180;-68
2021/10/21 05:23:47;;;;;;;2.42;0.93;;;;;;;-139.48;100.00;61774.03;4980883;28;20108;-67
2021/10/21 05:26:31;;;;;;;9.32;2.00;;;;;;;-139.48;100.00;61774.03;4994693;28;20105;-66
2021/10/21 05:29:15;;;;;;;7.45;1.23;;;;;;;-139.48;100.00;61774.03;4994479;28;20561;-68
2021/10/21 05:32:00;;;;;;;11.27;1.63;;;;;;;-139.48;100.00;61774.03;4995162;28;20053;-67
2021/10/21 05:34:45;;;;;;;7.53;1.60;;;;;;;-139.48;100.00;61774.03;4995180;28;20623;-67
2021/10/21 05:37:29;;;;;;;8.57;2.00;;;;;;;-139.48;100.00;61774.03;4995308;28;20053;-68
2021/10/21 05:40:13;;;;;;;8.82;1.50;;;;;;;-139.48;100.00;61774.03;4980873;28;20081;-66
2021/10/21 05:42:58;;;;;;;8.40;1.13;;;;;;;-139.48;100.00;61774.03;4980403;28;20045;-66
2021/10/21 05:45:42;;;;;;;2.92;0.80;;;;;;;-139.48;100.00;61774.03;4995453;28;20511;-66
2021/10/21 05:48:27;;;;;;;10.98;1.55;;;;;;;-139.48;100.00;61774.03;4994936;28;20053;-67
2021/10/21 05:51:11;;;;;;;8.82;1.92;;;;;;;-139.48;100.00;61774.03;4980216;28;20050;-66
2021/10/21 05:53:55;;;;;;;6.90;1.40;;;;;;;-139.48;100.00;61774.03;4993806;28;20462;-66
2021/10/21 07:00:45;;;;;;;5.18;0.93;;;;;;;-139.48;100.00;61774.03;4994094;28;20499;-72
2021/10/21 07:03:29;;;;;;;5.00;0.70;;;;;;;-139.48;100.00;61774.03;4993032;28;20402;-66
2021/10/21 07:06:14;;;;;;;7.80;1.02;;;;;;;-139.48;100.00;61774.03;4993801;28;20081;-66
2021/10/21 07:08:57;;;;;;;11.23;1.45;;;;;;;-139.48;100.00;61774.03;4993880;28;20550;-67
2021/10/21 07:11:41;;;;;;;2.78;0.43;;;;;;;-139.48;100.00;61774.03;4992753;28;20514;-67
2021/10/21 07:14:25;;;;;;;1.30;0.70;;;;;;;-139.48;100.00;61774.03;4993300;28;20503;-69
2021/10/21 07:17:09;;;;;;;;;;;;;;;-139.48;100.00;61774.03;4993121;28;20419;-68
2021/10/21 07:19:53;;;;;;;2.30;0.60;;;;;;;-139.48;100.00;61774.03;4992977;28;19924;-67
2021/10/21 07:22:37;;;;;;;1.88;0.73;;;;;;;-139.48;100.00;61774.03;4979380;28;20104;-70
2021/10/21 07:25:23;;;;;;;8.80;0.90;;;;;;;-139.48;100.00;61774.03;4992896;28;20104;-70
2021/10/21 07:28:06;;;;;;;6.47;0.82;;;;;;;-139.48;100.00;61774.03;4992562;28;20051;-70
2021/10/21 07:31:13;;;;;;;8.77;0.88;;;;;;;-139.48;100.00;61774.03;4992748;28;20181;-66
2021/10/21 07:33:57;;;;;;;8.52;0.93;;;;;;;-139.48;100.00;61774.03;4992826;28;20100;-68
2021/10/21 07:36:41;;;;;;;5.20;0.77;;;;;;;-139.48;100.00;61774.03;4993827;28;20134;-67
2021/10/21 07:39:25;;;;;;;3.83;0.70;;;;;;;-139.48;100.00;61774.03;4992404;28;20395;-67
2021/10/21 07:42:10;;;;;;;4.13;0.88;;;;;;;-139.48;100.00;61774.03;4993368;28;20048;-67
2021/10/21 07:44:53;;;;;;;3.25;0.60;;;;;;;-139.48;100.00;61774.03;4992721;28;20060;-68
2021/10/21 07:47:41;;;;;;;8.65;0.90;;;;;;;-139.48;100.00;61774.03;4993639;28;20054;-68
2021/10/21 07:50:24;;;;;;;1.75;0.68;;;;;;;-139.48;100.00;61774.03;4993436;28;20462;-68
2021/10/21 07:53:09;;;;;;;;;;;;;;;-139.48;100.00;61774.03;4992749;28;20480;-67
2021/10/21 07:55:52;;;;;;;2.88;0.50;;;;;;;-139.48;100.00;61774.03;4993855;28;20012;-66
2021/10/21 07:58:36;;;;;;;5.97;0.70;;;;;;;-139.48;100.00;61774.03;4993326;28;20053;-67
2021/10/21 08:01:20;;;;;;;6.45;0.40;;;;;;;-139.48;100.00;61774.03;4978777;28;20126;-67
2021/10/21 08:04:04;;;;;;;3.38;0.70;;;;;;;-139.48;100.00;61774.03;4993025;28;20100;-66
2021/10/21 08:06:49;;;;;;;0.73;0.43;;;;;;;-139.48;100.00;61774.03;4992490;28;20052;-68
2021/10/21 08:09:33;;;;;;;2.75;0.75;;;;;;;-139.48;100.00;61774.03;4992887;28;20576;-67
2021/10/21 08:12:17;;;;;;;1.05;0.70;;;;;;;-139.48;100.00;61774.03;4996604;28;20583;-66
2021/10/21 08:15:03;;;;;;;5.72;0.52;;;;;;;-139.48;100.00;61774.03;4995949;28;20457;-67
2021/10/21 08:17:47;;;;;;;4.00;0.63;;;;;;;-139.48;100.00;61774.03;4995984;28;20057;-67
2021/10/21 08:20:32;;;;;;;1.67;0.65;;;;;;;-139.48;100.00;61774.03;4996561;28;20112;-67
2021/10/21 08:23:17;;;;;;;0.40;0.40;;;;;;;-139.48;100.00;61774.03;4995790;28;20046;-67
2021/10/21 08:26:01;;;;;;;4.22;0.95;;;;;;;-139.48;100.00;61774.03;4995814;28;20061;-67
2021/10/21 08:28:47;;;;;;;1.38;0.30;;;;;;;-139.48;100.00;61774.03;4996573;28;20471;-66
2021/10/21 08:31:31;;;;;;;6.30;1.05;;;;;;;-139.48;100.00;61774.03;4995686;28;20149;-69
2021/10/21 08:34:15;;;;;;;0.80;0.40;;;;;;;-139.48;100.00;61774.03;4995566;28;20052;-67
2021/10/21 08:36:59;;;;;;;3.95;0.77;;;;;;;-139.48;100.00;61774.03;4996641;28;20469;-66
2021/10/21 08:39:44;;;;;;;2.75;0.65;;;;;;;-139.48;100.00;61774.03;4995557;28;20053;-66
2021/10/21 08:42:28;;;;;;;1.20;0.50;;;;;;;-139.48;100.00;61774.03;4996261;28;20506;-67
2021/10/21 08:45:13;;;;;;;1.05;0.70;;;;;;;-139.48;100.00;61774.03;4996407;28;20049;-66
2021/10/21 08:48:01;;;;;;;2.13;0.50;;;;;;;-139.48;100.00;61774.03;4995280;28;20116;-67
2021/10/21 08:50:48;;;;;;;1.92;0.60;;;;;;;-139.48;100.00;61774.03;4995537;28;20506;-67
2021/10/21 08:53:34;;;;;;;1.55;0.47;;;;;;;-139.48;100.00;61774.03;4995072;28;20053;-67
2021/10/21 08:56:25;;;;;;;3.15;0.98;;;;;;;-139.48;100.00;61774.03;4994899;28;20057;-69
2021/10/21 08:59:09;;;;;;;2.92;0.88;;;;;;;-139.48;100.00;61774.03;4994930;28;20045;-68
2021/10/21 09:02:11;;;;;;;1.95;0.50;;;;;;;-139.48;100.00;61774.03;4996068;28;20045;-68
2021/10/21 09:05:36;;;;;;;1.20;0.55;;;;;;;-139.48;100.00;61774.03;4994931;28;20045;-67
2021/10/21 09:08:20;;;;;;;0.40;0.40;;;;;;;-139.48;100.00;61774.03;4996269;28;20146;-68
2021/10/21 09:11:04;;;;;;;0.63;0.40;;;;;;;-139.48;100.00;61774.03;4995010;28;20120;-68
2021/10/21 09:14:10;;;;;;;3.90;0.98;;;;;;;-139.48;100.00;61774.03;4994834;28;20133;-68
2021/10/21 09:17:01;;;;;;;1.27;0.43;;;;;;;-139.48;100.00;61774.03;4994583;28;20108;-68
2021/10/21 09:19:46;;;;;;;1.70;0.60;;;;;;;-139.48;100.00;61774.03;4981031;28;20053;-68
2021/10/21 09:22:30;;;;;;;1.52;0.60;;;;;;;-139.48;100.00;61774.03;4980857;28;20396;-68
2021/10/21 09:25:22;;;;;;;1.75;0.70;;;;;;;-139.48;100.00;61774.03;4994987;28;20467;-68
2021/10/21 09:28:35;;;;;;;3.67;0.70;;;;;;;-139.48;100.00;61774.03;4995586;28;20097;-68
2021/10/21 09:31:19;;;;;;;4.20;0.82;;;;;;;-139.48;100.00;61774.03;4973914;28;20092;-68
2021/10/21 09:34:03;;;;;;;2.75;0.75;;;;;;;-139.48;100.00;61774.03;4994228;28;20056;-68
2021/10/21 09:36:48;;;;;;;2.92;0.75;;;;;;;-139.48;100.00;61774.03;4980741;28;20108;-68
2021/10/21 09:39:43;;;;;;;3.60;0.70;;;;;;;-139.48;100.00;61774.03;4980733;28;20049;-68
2021/10/21 09:42:33;;;;;;;5.15;1.25;;;;;;;-139.48;100.00;61774.03;4980239;28;20498;-68
2021/10/21 09:45:22;;;;;;;4.68;0.73;;;;;;;-139.48;100.00;61774.03;5142980;22;20202;-70
2021/10/21 09:48:08;;;;;;;1.83;0.70;;;;;;;-139.48;100.00;61774.03;5013993;28;20100;-71
2021/10/21 09:50:52;;;;;;;4.65;1.20;;;;;;;-139.48;100.00;61774.03;5013940;28;20136;-71
2021/10/21 09:53:35;;;;;;;1.88;0.90;;;;;;;-139.48;100.00;61774.03;4999721;28;20103;-72
2021/10/21 09:56:19;;;;;;;;;;;;;;;-139.48;100.00;61774.03;5015006;28;20145;-70
2021/10/21 09:59:07;;;;;;;2.43;0.80;;;;;;;-139.48;100.00;61774.03;5013729;28;19920;-72
2021/10/21 10:01:53;;;;;;;0.43;0.40;;;;;;;-139.48;100.00;61774.03;5013854;28;20502;-71
2021/10/21 10:05:00;;;;;;;1.38;0.65;;;;;;;-139.48;100.00;61774.03;5013720;28;20128;-69
2021/10/21 10:07:44;;;;;;;2.13;0.70;;;;;;;-139.48;100.00;61774.03;5000380;28;20088;-71
2021/10/21 10:10:28;;;;;;;6.20;1.08;;;;;;;-139.48;100.00;61774.03;5013574;28;20053;-71
2021/10/21 10:13:12;;;;;;;5.80;0.95;;;;;;;-139.48;100.00;61774.03;5013435;28;20541;-72
2021/10/21 10:15:56;;;;;;;4.20;0.82;;;;;;;-139.48;100.00;61774.03;5013205;28;20045;-72
2021/10/21 10:18:42;;;;;;;3.35;0.85;;;;;;;-139.48;100.00;61774.03;4999706;28;20422;-72
2021/10/21 10:21:40;;;;;;;3.47;1.10;;;;;;;-139.48;100.00;61774.03;4999807;28;20061;-71
2021/10/21 10:24:32;;;;;;;6.80;1.08;;;;;;;-139.48;100.00;61774.03;5000457;28;20527;-72
2021/10/21 10:27:28;;;;;;;4.65;1.08;;;;;;;-139.48;100.00;61774.03;5013073;28;20103;-71
2021/10/21 10:30:13;;;;;;;2.85;1.20;;;;;;;-139.48;100.00;61774.03;5013035;28;20108;-71
2021/10/21 10:32:57;;;;;;;4.07;0.82;;;;;;;-139.48;100.00;61774.03;5012622;28;20108;-70
2021/10/21 10:35:42;;;;;;;4.65;1.20;;;;;;;-139.48;100.00;61774.03;4999395;28;20513;-67
2021/10/21 10:38:36;;;;;;;4.80;0.98;;;;;;;-139.48;100.00;61774.03;5012942;28;20092;-69
2021/10/21 10:41:47;;;;;;;6.07;1.00;;;;;;;-139.48;100.00;61774.03;5013220;28;20052;-69
2021/10/21 10:44:34;;;;;;;10.00;1.40;;;;;;;-139.48;100.00;61774.03;5013055;28;20049;-69
2021/10/21 10:47:58;;;;;;;4.05;1.05;;;;;;;-139.48;100.00;61774.03;5013704;28;20049;-69
2021/10/21 10:50:41;;;;;;;4.90;0.90;;;;;;;-139.48;100.00;61774.03;5012723;28;20044;-69
2021/10/21 10:53:44;;;;;;;1.55;1.00;;;;;;;-139.48;100.00;61774.03;5013749;28;20114;-69
2021/10/21 10:56:46;;;;;;;5.00;1.63;;;;;;;-139.48;100.00;61774.03;5012523;28;20109;-66
2021/10/21 10:59:31;;;;;;;4.10;0.90;;;;;;;-139.48;100.00;61774.03;5013710;28;20045;-69
2021/10/21 11:02:27;;;;;;;3.05;0.93;;;;;;;-139.48;100.00;61774.03;5012861;28;20100;-69
2021/10/21 11:05:13;;;;;;;6.03;1.48;;;;;;;-139.48;100.00;61774.03;5013490;28;20049;-68
2021/10/21 11:07:57;;;;;;;2.72;0.82;;;;;;;-139.48;100.00;61774.03;5012490;28;20152;-69
2021/10/21 11:10:43;;;;;;;8.38;1.05;;;;;;;-139.48;100.00;61774.03;5012686;28;20176;-68
2021/10/21 11:13:33;;;;;;;4.18;1.20;;;;;;;-139.48;100.00;61774.03;4999153;28;20053;-67
2021/10/21 11:16:43;;;;;;;5.70;1.10;;;;;;;-139.48;100.00;61774.03;5013464;28;20052;-69
2021/10/21 11:19:36;;;;;;;3.65;1.30;;;;;;;-139.48;100.00;61774.03;5012658;28;20560;-69
2021/10/21 11:22:20;;;;;;;5.50;1.20;;;;;;;-139.48;100.00;61774.03;5013370;28;20048;-68
2021/10/21 11:25:07;;;;;;;2.28;0.98;;;;;;;-139.48;100.00;61774.03;5013552;28;20080;-68
2021/10/21 11:27:53;;;;;;;6.22;1.17;;;;;;;-139.48;100.00;61774.03;5012566;28;20096;-69
2021/10/21 11:30:40;;;;;;;3.03;0.90;;;;;;;-139.48;100.00;61774.03;5013752;28;20057;-69
2021/10/21 11:33:26;;;;;;;3.38;1.50;;;;;;;-139.48;100.00;61774.03;5012751;28;20057;-68
2021/10/21 11:36:10;;;;;;;3.40;1.00;;;;;;;-139.48;100.00;61774.03;4998582;28;20048;-70
2021/10/21 11:39:05;;;;;;;5.22;1.20;;;;;;;-139.48;100.00;61774.03;5013588;28;20069;-69
2021/10/21 11:41:49;;;;;;;1.95;0.93;;;;;;;-139.48;100.00;61774.03;5012733;28;20065;-69
2021/10/21 11:44:34;;;;;;;2.22;1.13;;;;;;;-139.48;100.00;61774.03;5000778;28;20111;-70
2021/10/21 11:47:18;;;;;;;4.47;1.17;;;;;;;-139.48;100.00;61774.03;5015884;28;20264;-72
2021/10/21 11:50:04;;;;;;;6.75;1.13;;;;;;;-139.48;100.00;61774.03;5016242;28;20049;-71
2021/10/21 11:52:48;;;;;;;5.15;1.55;;;;;;;-139.48;100.00;61774.03;5016836;28;20461;-73
2021/10/21 11:55:32;;;;;;;3.08;0.90;;;;;;;-139.48;100.00;61774.03;5016113;28;20049;-71
2021/10/21 11:58:24;;;;;;;3.80;0.70;;;;;;;-139.48;100.00;61774.03;5002300;28;20049;-70
2021/10/21 12:01:09;;;;;;;3.85;1.33;;;;;;;-139.48;100.00;61774.03;5016034;28;20045;-71
2021/10/21 12:03:53;;;;;;;2.60;0.98;;;;;;;-139.48;100.00;61774.03;5002048;28;20048;-74
2021/10/21 12:06:40;;;;;;;1.15;0.55;;;;;;;-139.48;100.00;61774.03;5002032;28;20092;-70
2021/10/21 12:09:24;;;;;;;4.50;1.17;;;;;;;-139.48;100.00;61774.03;5002774;28;20103;-70
2021/10/21 12:12:12;;;;;;;4.05;1.10;;;;;;;-139.48;100.00;61774.03;5001813;28;20077;-70
2021/10/21 12:15:00;;;;;;;3.45;1.10;;;;;;;-139.48;100.00;61774.03;5016323;28;20088;-68
2021/10/21 12:17:45;;;;;;;4.05;1.00;;;;;;;-139.48;100.00;61774.03;5015941;28;20095;-70
2021/10/21 12:20:51;;;;;;;4.10;1.08;;;;;;;-139.48;100.00;61774.03;5015323;28;20064;-70
2021/10/21 12:23:45;;;;;;;5.10;1.20;;;;;;;-139.48;100.00;61774.03;5003052;28;20147;-70
2021/10/21 12:26:29;;;;;;;;;;;;;;;-139.48;100.00;61774.03;5015505;28;20522;-71
2021/10/21 12:29:13;;;;;;;5.05;1.40;;;;;;;-139.48;100.00;61774.03;5015288;28;20336;-70
2021/10/21 12:31:57;;;;;;;5.22;1.10;;;;;;;-139.48;100.00;61774.03;5015273;28;20103;-70
2021/10/21 12:34:42;;;;;;;5.85;1.20;;;;;;;-139.48;100.00;61774.03;5001625;28;20045;-69
2021/10/21 12:37:28;;;;;;;1.95;0.80;;;;;;;-139.48;100.00;61774.03;5001046;28;20090;-70
2021/10/21 12:40:14;;;;;;;2.58;0.75;;;;;;;-139.48;100.00;61774.03;5014970;28;20048;-70
2021/10/21 12:43:15;;;;;;;1.50;0.80;;;;;;;-139.48;100.00;61774.03;5001275;28;20044;-68
2021/10/21 12:46:01;;;;;;;6.80;1.30;;;;;;;-139.48;100.00;61774.03;5015505;28;20096;-70
2021/10/21 12:48:49;;;;;;;5.80;1.10;;;;;;;-139.48;100.00;61774.03;5001286;28;20061;-71
2021/10/21 12:51:33;;;;;;;2.63;0.88;;;;;;;-139.48;100.00;61774.03;5015777;28;20137;-70
2021/10/21 12:54:27;;;;;;;3.72;1.30;;;;;;;-139.48;100.00;61774.03;5014713;28;20407;-69
2021/10/21 12:57:16;;;;;;;2.17;0.60;;;;;;;-139.48;100.00;61774.03;5013889;28;20056;-70
2021/10/21 13:00:00;;;;;;;4.45;1.15;;;;;;;-139.48;100.00;61774.03;5014881;28;20506;-70
2021/10/21 13:02:44;;;;;;;1.10;0.63;;;;;;;-139.48;100.00;61774.03;5001235;28;20045;-69
2021/10/21 13:05:28;;;;;;;2.38;0.98;;;;;;;-139.48;100.00;61774.03;5000847;28;20509;-69
2021/10/21 13:08:12;;;;;;;4.00;1.00;;;;;;;-139.48;100.00;61774.03;5014809;28;20056;-70
2021/10/21 13:10:56;;;;;;;6.57;1.30;;;;;;;-139.48;100.00;61774.03;5014529;28;20048;-70
2021/10/21 13:13:40;;;;;;;4.03;0.80;;;;;;;-139.48;100.00;61774.03;5014333;28;20193;-70
2021/10/21 13:16:24;;;;;;;2.47;0.90;;;;;;;-139.48;100.00;61774.03;5014130;28;20099;-71
2021/10/21 13:19:09;;;;;;;;;;;;;;;-139.48;100.00;61774.03;5014530;28;20506;-70
2021/10/21 13:21:54;;;;;;;3.38;0.70;;;;;;;-139.48;100.00;61774.03;5014452;28;19921;-69
2021/10/21 13:24:38;;;;;;;5.20;1.65;;;;;;;-139.48;100.00;61774.03;5015500;28;20053;-70
2021/10/21 13:27:22;;;;;;;3.05;1.13;;;;;;;-139.48;100.00;61774.03;5000501;28;20061;-70
2021/10/21 13:30:07;;;;;;;3.33;1.15;;;;;;;-139.48;100.00;61774.03;5014187;28;20203;-70
2021/10/21 13:32:52;;;;;;;2.65;1.38;;;;;;;-139.48;100.00;61774.03;5000016;28;20073;-71
2021/10/21 13:35:38;;;;;;;6.07;1.70;;;;;;;-139.48;100.00;61774.03;5014751;28;20429;-70
2021/10/21 13:38:22;;;;;;;6.07;1.45;;;;;;;-139.48;100.00;61774.03;4999940;28;20153;-71